createdAt,value
2023-03-23T16:02:38.052Z,99861.94
2023-03-23T16:07:39.599Z,99866.28
2023-03-23T16:12:41.175Z,99872.59
2023-03-23T16:17:42.974Z,99865.66
2023-03-23T16:22:44.469Z,99872.47
2023-03-23T16:27:51.691Z,99863.38
2023-03-23T16:32:55.508Z,99868.94
2023-03-23T16:38:07.249Z,99873.72
2023-03-23T16:43:10.797Z,99891.69
2023-03-23T16:48:13.587Z,99883.47
2023-03-23T16:53:16.188Z,99889.00
2023-03-23T16:58:18.316Z,99901.47
2023-03-23T17:03:21.051Z,99901.03
2023-03-23T17:08:22.492Z,99906.13
2023-03-23T17:13:25.630Z,99909.53
2023-03-23T17:18:28.973Z,99909.81
2023-03-23T17:23:30.679Z,99891.97
2023-03-23T17:28:32.279Z,99907.53
2023-03-23T17:33:33.866Z,99903.06
2023-03-23T17:38:35.595Z,99900.06
2023-03-23T17:43:39.353Z,99900.88
2023-03-23T17:48:41.321Z,99898.41
2023-03-23T17:53:42.738Z,99895.47
2023-03-23T17:58:44.377Z,99909.00
2023-03-23T18:03:46.228Z,99902.66
2023-03-23T18:08:47.676Z,99892.63
2023-03-23T18:13:49.078Z,99897.31
2023-03-23T18:18:50.535Z,99881.44
2023-03-23T18:23:59.161Z,99881.03
2023-03-23T18:29:01.616Z,99867.09
2023-03-23T18:34:02.999Z,99879.06
2023-03-23T18:39:05.634Z,99855.38
2023-03-23T18:44:07.306Z,99839.56
2023-03-23T18:49:08.739Z,99841.69
2023-03-23T18:54:10.158Z,99853.44
2023-03-23T18:59:11.612Z,99847.59
2023-03-23T19:04:13.516Z,99849.34
2023-03-23T19:09:15.455Z,99844.59
2023-03-23T19:14:18.089Z,99843.28
2023-03-23T19:19:19.992Z,99842.06
2023-03-23T19:24:21.509Z,99844.28
2023-03-23T19:29:26.976Z,99825.81
2023-03-23T19:34:30.099Z,99833.75
2023-03-23T19:39:31.678Z,99820.75
2023-03-23T19:44:34.280Z,99815.84
2023-03-23T19:49:36.098Z,99807.53
2023-03-23T19:54:38.376Z,99792.56
2023-03-23T19:59:39.836Z,99790.31
2023-03-23T20:04:41.571Z,99788.84
2023-03-23T20:09:43.111Z,99779.25
2023-03-23T20:14:45.413Z,99779.81
2023-03-23T20:19:46.988Z,99784.28
2023-03-23T20:24:49.426Z,99764.75
2023-03-23T20:29:52.231Z,99759.41
2023-03-23T20:34:53.654Z,99757.88
2023-03-23T20:39:55.321Z,99753.28
2023-03-23T20:44:57.056Z,99743.38
2023-03-23T20:49:58.620Z,99734.63
2023-03-23T20:55:00.837Z,99744.91
2023-03-23T21:00:06.391Z,99741.41
2023-03-23T21:05:08.948Z,99734.50
2023-03-23T21:10:10.518Z,99740.94
2023-03-23T21:15:12.091Z,99749.06
2023-03-23T21:20:13.703Z,99754.16
2023-03-23T21:25:15.215Z,99744.50
2023-03-23T21:30:16.661Z,99728.28
2023-03-23T21:35:18.018Z,99732.25
2023-03-23T21:40:20.504Z,99731.84
2023-03-23T21:45:21.940Z,99739.06
2023-03-23T21:50:24.306Z,99737.19
2023-03-23T21:55:30.895Z,99725.00
2023-03-23T22:00:36.818Z,99719.69
2023-03-23T22:05:47.222Z,99720.81
2023-03-23T22:11:07.425Z,99709.06
2023-03-23T22:16:18.654Z,99697.56
2023-03-23T22:21:26.708Z,99699.69
2023-03-23T22:26:32.244Z,99686.59
2023-03-23T22:31:40.873Z,99680.31
2023-03-23T22:36:49.743Z,99664.97
2023-03-23T22:41:55.872Z,99648.59
2023-03-23T22:47:02.049Z,99654.59
2023-03-23T22:52:17.544Z,99634.66
2023-03-23T22:57:21.162Z,99642.72
2023-03-23T23:02:27.260Z,99630.84
2023-03-23T23:07:33.364Z,99616.88
2023-03-23T23:12:41.536Z,99614.03
2023-03-23T23:17:44.631Z,99604.84
2023-03-23T23:22:50.512Z,99596.13
2023-03-23T23:27:52.346Z,99586.41
2023-03-23T23:32:54.089Z,99578.59
2023-03-23T23:37:55.826Z,99585.91
2023-03-23T23:42:59.001Z,99580.06
2023-03-23T23:48:00.508Z,99573.47
2023-03-23T23:53:01.961Z,99570.75
2023-03-23T23:58:04.654Z,99568.81
